createdAt,value
2022-08-17T00:02:26.502Z,10.40
2022-08-17T00:05:31.972Z,10.90
2022-08-17T00:08:40.975Z,9.95
2022-08-17T00:12:42.177Z,13.00
2022-08-17T00:15:11.002Z,10.52
2022-08-17T00:19:06.041Z,10.40
2022-08-17T00:22:32.785Z,9.73
2022-08-17T00:25:03.785Z,10.25
2022-08-17T00:28:07.109Z,9.95
2022-08-17T00:31:11.654Z,9.68
2022-08-17T00:34:14.455Z,9.23
2022-08-17T00:37:17.268Z,10.38
2022-08-17T00:40:22.119Z,10.30
2022-08-17T00:43:32.685Z,11.10
2022-08-17T00:46:39.301Z,11.02
2022-08-17T00:49:42.109Z,11.60
2022-08-17T00:52:51.991Z,10.55
2022-08-17T00:55:56.561Z,11.07
2022-08-17T00:58:59.620Z,11.32
2022-08-17T01:02:03.394Z,10.38
2022-08-17T01:05:08.625Z,10.47
2022-08-17T01:08:14.600Z,11.18
2022-08-17T01:11:19.750Z,10.82
2022-08-17T01:14:24.144Z,10.40
2022-08-17T01:17:28.968Z,10.13
2022-08-17T01:20:32.466Z,10.70
2022-08-17T01:23:53.156Z,10.80
2022-08-17T01:26:56.704Z,9.43
2022-08-17T01:30:56.963Z,11.25
2022-08-17T01:33:30.250Z,9.65
2022-08-17T01:36:32.942Z,10.07
2022-08-17T01:39:42.064Z,11.68
2022-08-17T01:42:47.923Z,9.68
2022-08-17T01:46:02.645Z,9.43
2022-08-17T01:49:08.723Z,10.55
2022-08-17T01:52:13.157Z,11.67
2022-08-17T01:55:25.856Z,10.45
2022-08-17T01:58:29.980Z,10.18
2022-08-17T02:01:34.716Z,10.27
2022-08-17T02:04:37.700Z,10.43
2022-08-17T02:07:59.383Z,10.70
2022-08-17T02:11:11.178Z,10.90
2022-08-17T02:14:15.573Z,10.95
2022-08-17T02:17:18.452Z,10.57
2022-08-17T02:20:41.620Z,12.50
2022-08-17T02:23:49.512Z,10.67
2022-08-17T02:26:53.693Z,11.27
2022-08-17T02:29:56.361Z,11.35
2022-08-17T02:32:59.152Z,11.20
2022-08-17T02:36:08.909Z,12.00
2022-08-17T02:39:13.788Z,10.37
2022-08-17T02:42:18.414Z,11.48
2022-08-17T02:45:24.209Z,10.07
2022-08-17T02:48:30.541Z,11.48
2022-08-17T02:51:35.288Z,10.60
2022-08-17T02:54:42.280Z,11.60
2022-08-17T02:57:46.828Z,10.82
2022-08-17T03:00:49.731Z,12.20
2022-08-17T03:03:52.417Z,11.60
2022-08-17T03:06:55.206Z,12.00
2022-08-17T03:09:57.875Z,11.70
2022-08-17T03:13:02.503Z,10.38
2022-08-17T03:16:05.630Z,10.60
2022-08-17T03:19:08.301Z,11.75
2022-08-17T03:22:35.864Z,11.80
2022-08-17T03:25:36.696Z,10.90
2022-08-17T03:28:42.850Z,10.43
2022-08-17T03:31:45.826Z,11.23
2022-08-17T03:34:49.066Z,12.63
2022-08-17T03:38:00.117Z,11.05
2022-08-17T03:41:06.132Z,11.60
2022-08-17T03:44:10.474Z,11.05
2022-08-17T03:47:30.699Z,12.20
2022-08-17T03:50:51.043Z,11.33
2022-08-17T03:54:16.789Z,11.27
2022-08-17T03:57:20.479Z,11.13
2022-08-17T04:00:24.558Z,10.65
2022-08-17T04:03:27.429Z,11.03
2022-08-17T04:06:30.110Z,11.33
2022-08-17T04:09:33.022Z,12.05
2022-08-17T04:12:45.408Z,11.27
2022-08-17T04:15:49.463Z,11.98
2022-08-17T04:18:53.920Z,11.90
2022-08-17T04:21:57.749Z,11.37
2022-08-17T04:25:01.285Z,12.15
2022-08-17T04:28:05.588Z,10.82
2022-08-17T04:31:18.861Z,12.07
2022-08-17T04:34:21.543Z,12.07
2022-08-17T04:37:24.206Z,12.47
2022-08-17T04:40:46.305Z,12.27
2022-08-17T04:43:50.400Z,14.10
2022-08-17T04:46:54.400Z,12.20
2022-08-17T04:50:00.896Z,13.67
2022-08-17T04:53:04.407Z,12.40
2022-08-17T04:56:07.865Z,14.95
2022-08-17T04:59:17.301Z,12.55
2022-08-17T05:02:21.447Z,13.05
2022-08-17T05:05:26.590Z,12.70
2022-08-17T05:08:29.888Z,12.90
2022-08-17T05:11:32.672Z,12.20
2022-08-17T05:14:35.464Z,12.35
2022-08-17T05:17:39.506Z,12.40
2022-08-17T05:20:42.812Z,11.47
2022-08-17T05:23:50.314Z,11.90
2022-08-17T05:27:01.370Z,11.45
2022-08-17T05:30:09.008Z,11.63
2022-08-17T05:33:16.522Z,12.02
2022-08-17T05:36:43.150Z,11.83
2022-08-17T05:39:41.885Z,11.40
2022-08-17T05:42:45.066Z,13.35
2022-08-17T05:45:56.138Z,15.13
2022-08-17T05:49:03.675Z,11.93
2022-08-17T05:52:21.741Z,12.07
2022-08-17T05:55:33.849Z,12.57
2022-08-17T05:58:46.815Z,12.95
2022-08-17T06:01:57.832Z,12.65
2022-08-17T06:05:17.952Z,12.38
2022-08-17T06:08:30.540Z,12.50
2022-08-17T06:11:40.848Z,11.57
2022-08-17T06:14:58.384Z,11.88
2022-08-17T06:18:03.990Z,11.95
2022-08-17T06:21:14.313Z,12.77
2022-08-17T06:24:27.436Z,11.10
2022-08-17T06:27:35.808Z,12.80
2022-08-17T06:30:59.238Z,11.50
2022-08-17T06:34:05.642Z,12.90
2022-08-17T06:37:23.995Z,12.20
2022-08-17T06:40:55.267Z,13.50
2022-08-17T06:44:10.781Z,12.40
2022-08-17T06:47:28.609Z,11.77
2022-08-17T06:50:36.730Z,11.57
2022-08-17T06:53:45.639Z,10.63
2022-08-17T06:56:55.346Z,11.50
2022-08-17T07:00:02.237Z,9.53
2022-08-17T07:03:15.676Z,8.82
2022-08-17T07:06:21.835Z,8.45
2022-08-17T07:09:31.827Z,7.75
2022-08-17T07:12:40.067Z,8.27
2022-08-17T07:15:44.194Z,7.90
2022-08-17T07:18:50.622Z,7.90
2022-08-17T07:21:57.309Z,7.72
2022-08-17T07:25:05.267Z,6.72
2022-08-17T07:28:08.999Z,10.43
2022-08-17T07:31:14.116Z,8.83
2022-08-17T07:34:16.890Z,7.65
2022-08-17T07:37:20.774Z,6.68
2022-08-17T07:40:33.430Z,7.55
2022-08-17T07:43:37.926Z,6.20
2022-08-17T07:47:08.474Z,6.87
2022-08-17T07:50:27.592Z,6.63
2022-08-17T07:53:32.063Z,6.80
2022-08-17T07:56:45.724Z,6.95
2022-08-17T08:00:16.814Z,6.83
2022-08-17T08:03:26.145Z,6.87
2022-08-17T08:06:29.128Z,7.03
2022-08-17T08:09:35.944Z,7.30
2022-08-17T08:12:42.055Z,6.63
2022-08-17T08:15:53.636Z,7.63
2022-08-17T08:18:59.807Z,6.67
2022-08-17T08:22:07.793Z,7.20
2022-08-17T08:25:28.742Z,6.32
2022-08-17T08:28:43.487Z,6.95
2022-08-17T08:31:58.730Z,7.93
2022-08-17T08:35:07.642Z,6.80
2022-08-17T08:38:22.313Z,7.70
2022-08-17T08:41:38.425Z,7.07
2022-08-17T08:45:00.602Z,6.78
2022-08-17T08:48:53.912Z,7.47
2022-08-17T08:51:55.752Z,6.70
2022-08-17T08:55:07.514Z,10.27
2022-08-17T08:58:31.759Z,8.35
2022-08-17T09:01:59.762Z,6.72
2022-08-17T09:05:15.473Z,7.10
2022-08-17T09:08:41.078Z,7.73
2022-08-17T09:12:02.498Z,7.85
2022-08-17T09:15:13.139Z,6.65
2022-08-17T09:18:59.348Z,6.85
2022-08-17T09:21:52.687Z,6.50
2022-08-17T09:25:01.029Z,7.23
2022-08-17T09:28:07.250Z,6.30
2022-08-17T09:31:16.043Z,6.18
2022-08-17T09:34:31.944Z,5.40
2022-08-17T09:37:44.127Z,6.50
2022-08-17T09:40:52.536Z,7.40
2022-08-17T09:44:01.030Z,6.75
2022-08-17T09:47:11.250Z,6.25
2022-08-17T09:50:20.173Z,6.90
2022-08-17T09:53:44.738Z,7.28
2022-08-17T09:57:28.042Z,6.65
2022-08-17T10:00:28.016Z,6.35
2022-08-17T10:03:43.554Z,7.05
2022-08-17T10:06:54.219Z,7.20
2022-08-17T10:10:04.503Z,7.97
2022-08-17T10:13:19.688Z,6.85
2022-08-17T10:16:36.240Z,7.00
2022-08-17T10:19:43.988Z,7.55
2022-08-17T10:23:12.129Z,6.87
2022-08-17T10:26:25.049Z,8.45
2022-08-17T10:29:40.769Z,6.28
2022-08-17T10:32:56.054Z,8.35
2022-08-17T10:36:10.563Z,7.15
2022-08-17T10:39:28.459Z,6.43
2022-08-17T10:42:36.325Z,6.53
2022-08-17T10:45:49.510Z,7.88
2022-08-17T10:49:29.521Z,7.03
2022-08-17T10:52:52.511Z,5.43
2022-08-17T10:56:23.197Z,5.37
2022-08-17T10:59:50.865Z,7.13
2022-08-17T11:02:55.595Z,7.05
2022-08-17T11:06:12.654Z,6.40
2022-08-17T11:09:32.525Z,6.03
2022-08-17T11:12:42.205Z,6.43
2022-08-17T11:16:08.103Z,5.53
2022-08-17T11:19:31.661Z,7.15
2022-08-17T11:23:00.202Z,6.38
2022-08-17T11:26:08.560Z,9.00
2022-08-17T11:29:24.619Z,6.63
2022-08-17T11:32:37.124Z,6.28
2022-08-17T11:35:49.515Z,6.00
2022-08-17T11:39:00.698Z,5.47
2022-08-17T11:42:12.577Z,5.57
2022-08-17T11:45:35.097Z,6.60
2022-08-17T11:49:01.274Z,6.15
2022-08-17T11:52:35.179Z,6.43
2022-08-17T11:56:04.191Z,6.00
2022-08-17T11:59:54.991Z,6.00
2022-08-17T12:03:36.821Z,6.87
2022-08-17T12:06:51.154Z,5.57
2022-08-17T12:09:54.224Z,7.00
2022-08-17T12:12:57.275Z,8.10
2022-08-17T12:16:00.583Z,8.05
2022-08-17T12:19:05.176Z,6.83
2022-08-17T12:22:18.378Z,7.07
2022-08-17T12:25:25.315Z,7.93
2022-08-17T12:28:30.267Z,5.95
2022-08-17T12:31:37.173Z,6.53
2022-08-17T12:34:43.025Z,5.73
2022-08-17T12:37:50.626Z,6.25
2022-08-17T12:40:57.892Z,5.55
2022-08-17T12:44:03.375Z,6.10
2022-08-17T12:47:21.071Z,6.95
2022-08-17T12:50:29.596Z,6.33
2022-08-17T12:53:36.001Z,6.53
2022-08-17T12:56:39.183Z,6.68
2022-08-17T12:59:45.222Z,6.38
2022-08-17T13:02:52.354Z,5.82
2022-08-17T13:05:59.037Z,7.23
2022-08-17T13:09:12.784Z,6.38
2022-08-17T13:12:15.410Z,6.47
2022-08-17T13:15:25.142Z,6.57
2022-08-17T13:18:46.850Z,5.97
2022-08-17T13:21:53.416Z,6.40
2022-08-17T13:25:00.797Z,7.63
2022-08-17T13:28:03.766Z,6.40
2022-08-17T13:31:24.137Z,7.13
2022-08-17T13:34:44.541Z,6.32
2022-08-17T13:38:02.811Z,5.90
2022-08-17T13:41:07.605Z,6.10
2022-08-17T13:44:32.730Z,7.45
2022-08-17T13:47:35.692Z,6.05
2022-08-17T13:50:42.172Z,6.20
2022-08-17T13:54:02.847Z,6.00
2022-08-17T13:57:08.390Z,6.32
2022-08-17T14:00:19.533Z,6.68
2022-08-17T14:03:22.296Z,6.82
2022-08-17T14:06:51.551Z,6.65
2022-08-17T14:09:54.238Z,5.50
2022-08-17T14:12:58.534Z,5.93
2022-08-17T14:16:02.424Z,5.95
2022-08-17T14:19:06.042Z,6.30
2022-08-17T14:22:17.536Z,7.38
2022-08-17T14:25:22.849Z,6.30
2022-08-17T14:28:27.881Z,6.05
2022-08-17T14:31:35.360Z,6.20
2022-08-17T14:34:40.170Z,7.28
2022-08-17T14:37:44.941Z,6.60
2022-08-17T14:40:49.681Z,6.53
2022-08-17T14:43:54.106Z,7.47
2022-08-17T14:46:57.011Z,7.03
2022-08-17T14:50:01.300Z,7.03
2022-08-17T14:53:05.450Z,5.97
2022-08-17T14:56:09.116Z,6.10
2022-08-17T14:59:13.306Z,6.20
2022-08-17T15:02:16.397Z,6.55
2022-08-17T15:05:19.237Z,6.35
2022-08-17T15:08:21.867Z,5.95
2022-08-17T15:11:24.747Z,7.13
2022-08-17T15:14:29.078Z,6.95
2022-08-17T15:17:43.788Z,7.47
2022-08-17T15:20:50.034Z,7.95
2022-08-17T15:23:52.712Z,6.50
2022-08-17T15:26:55.358Z,9.07
2022-08-17T15:29:59.507Z,7.32
2022-08-17T15:33:03.298Z,6.20
2022-08-17T15:36:08.321Z,6.53
2022-08-17T15:39:10.993Z,6.13
2022-08-17T15:42:14.731Z,6.57
2022-08-17T15:45:24.532Z,6.57
2022-08-17T15:48:40.772Z,6.75
2022-08-17T15:51:43.855Z,7.13
2022-08-17T15:54:51.160Z,9.05
2022-08-17T15:57:54.047Z,9.17
2022-08-17T16:01:16.570Z,8.25
2022-08-17T16:04:30.184Z,8.18
2022-08-17T16:07:34.342Z,7.00
2022-08-17T16:10:37.062Z,7.47
2022-08-17T16:13:40.643Z,7.57
2022-08-17T16:16:44.659Z,8.88
2022-08-17T16:19:47.694Z,6.80
2022-08-17T16:22:51.445Z,6.97
2022-08-17T16:25:54.624Z,6.25
2022-08-17T16:28:58.681Z,7.27
2022-08-17T16:32:12.948Z,8.05
2022-08-17T16:35:18.283Z,7.70
2022-08-17T16:38:22.203Z,7.70
2022-08-17T16:41:41.651Z,7.97
2022-08-17T16:44:44.275Z,8.30
2022-08-17T16:47:50.160Z,7.22
2022-08-17T16:50:58.573Z,7.47
2022-08-17T16:54:08.472Z,6.50
2022-08-17T16:57:11.209Z,6.60
2022-08-17T17:00:16.177Z,7.87
2022-08-17T17:03:22.695Z,7.68
2022-08-17T17:06:32.283Z,7.05
2022-08-17T17:09:39.139Z,7.95
2022-08-17T17:13:03.931Z,7.88
2022-08-17T17:16:18.342Z,7.30
2022-08-17T17:19:34.356Z,7.53
2022-08-17T17:22:45.570Z,7.70
2022-08-17T17:25:59.309Z,8.43
2022-08-17T17:29:15.072Z,7.30
2022-08-17T17:32:26.166Z,7.80
2022-08-17T17:35:35.403Z,7.68
2022-08-17T17:38:43.837Z,10.15
2022-08-17T17:41:50.199Z,8.63
2022-08-17T17:45:00.914Z,9.45
2022-08-17T17:48:03.676Z,9.83
2022-08-17T17:52:06.681Z,10.07
2022-08-17T17:54:58.293Z,9.27
2022-08-17T17:58:13.302Z,8.57
2022-08-17T18:01:29.577Z,8.27
2022-08-17T18:04:41.313Z,9.83
2022-08-17T18:07:50.395Z,10.38
2022-08-17T18:11:02.174Z,12.48
2022-08-17T18:14:21.082Z,15.55
2022-08-17T18:17:24.002Z,15.95
2022-08-17T18:20:36.031Z,12.17
2022-08-17T18:23:54.556Z,10.02
2022-08-17T18:26:59.220Z,10.02
2022-08-17T18:30:09.056Z,9.65
2022-08-17T18:33:24.671Z,9.07
2022-08-17T18:36:29.936Z,8.13
2022-08-17T18:39:34.231Z,7.85
2022-08-17T18:42:38.647Z,9.48
2022-08-17T18:45:45.708Z,7.60
2022-08-17T18:48:54.992Z,10.43
2022-08-17T18:52:15.164Z,10.17
2022-08-17T18:55:23.859Z,8.05
2022-08-17T18:58:26.876Z,8.57
2022-08-17T19:01:52.166Z,9.75
2022-08-17T19:05:07.330Z,9.20
2022-08-17T19:08:20.563Z,8.97
2022-08-17T19:11:29.663Z,8.80
2022-08-17T19:14:32.722Z,9.23
2022-08-17T19:17:45.566Z,8.68
2022-08-17T19:20:56.462Z,8.50
2022-08-17T19:24:06.107Z,10.27
2022-08-17T19:27:15.922Z,8.70
2022-08-17T19:30:21.317Z,10.43
2022-08-17T19:33:24.647Z,9.65
2022-08-17T19:36:42.150Z,9.45
2022-08-17T19:40:06.127Z,8.30
2022-08-17T19:43:22.528Z,9.07
2022-08-17T19:46:36.365Z,10.50
2022-08-17T19:49:50.789Z,8.55
2022-08-17T19:53:00.446Z,10.40
2022-08-17T19:56:09.331Z,9.97
2022-08-17T19:59:21.156Z,8.55
2022-08-17T20:02:34.747Z,8.88
2022-08-17T20:06:01.389Z,9.52
2022-08-17T20:09:14.962Z,9.00
2022-08-17T20:12:21.102Z,10.30
2022-08-17T20:15:28.203Z,8.68
2022-08-17T20:18:37.799Z,10.18
2022-08-17T20:21:46.998Z,8.82
2022-08-17T20:24:55.402Z,9.23
2022-08-17T20:28:05.797Z,9.23
2022-08-17T20:31:46.122Z,8.73
2022-08-17T20:34:49.279Z,9.77
2022-08-17T20:38:02.259Z,9.85
2022-08-17T20:41:13.512Z,10.02
2022-08-17T20:44:32.936Z,10.73
2022-08-17T20:48:00.838Z,9.70
2022-08-17T20:51:30.593Z,9.88
2022-08-17T20:54:47.750Z,10.45
2022-08-17T20:57:50.656Z,10.50
2022-08-17T21:01:14.245Z,10.53
2022-08-17T21:04:47.500Z,9.95
2022-08-17T21:07:58.096Z,9.95
2022-08-17T21:11:16.058Z,9.90
2022-08-17T21:14:29.653Z,11.98
2022-08-17T21:17:41.816Z,10.37
2022-08-17T21:21:02.530Z,10.50
2022-08-17T21:24:16.934Z,10.98
2022-08-17T21:27:35.669Z,10.95
2022-08-17T21:30:49.961Z,11.48
2022-08-17T21:34:28.941Z,10.53
2022-08-17T21:37:39.714Z,11.07
2022-08-17T21:40:47.009Z,11.60
2022-08-17T21:43:52.592Z,11.52
2022-08-17T21:46:55.301Z,13.13
2022-08-17T21:50:17.251Z,11.70
2022-08-17T21:53:32.221Z,11.75
2022-08-17T21:56:39.395Z,11.20
2022-08-17T21:59:44.265Z,12.50
2022-08-17T22:02:56.228Z,11.57
2022-08-17T22:05:58.943Z,11.57
2022-08-17T22:09:08.111Z,10.93
2022-08-17T22:12:13.463Z,11.00
2022-08-17T22:15:20.412Z,10.85
2022-08-17T22:18:29.049Z,11.70
2022-08-17T22:21:31.893Z,12.40
2022-08-17T22:24:36.785Z,12.30
2022-08-17T22:27:49.859Z,11.23
2022-08-17T22:31:02.112Z,12.95
2022-08-17T22:34:13.315Z,11.05
2022-08-17T22:37:27.492Z,12.13
2022-08-17T22:40:35.282Z,12.10
2022-08-17T22:43:44.816Z,11.25
2022-08-17T22:46:55.369Z,13.18
2022-08-17T22:50:00.383Z,12.82
2022-08-17T22:53:31.072Z,11.77
2022-08-17T22:56:52.644Z,11.10
2022-08-17T22:59:57.644Z,11.25
2022-08-17T23:03:22.735Z,11.07
2022-08-17T23:06:25.817Z,11.60
2022-08-17T23:09:31.105Z,11.10
2022-08-17T23:12:39.593Z,11.90
2022-08-17T23:15:43.132Z,10.88
2022-08-17T23:18:49.287Z,11.25
2022-08-17T23:21:55.318Z,11.18
2022-08-17T23:24:58.628Z,10.95
2022-08-17T23:28:05.338Z,11.53
2022-08-17T23:31:09.843Z,11.15
2022-08-17T23:34:14.916Z,11.23
2022-08-17T23:37:19.144Z,10.68
2022-08-17T23:40:22.485Z,11.52
2022-08-17T23:43:28.191Z,12.47
2022-08-17T23:46:31.890Z,10.77
2022-08-17T23:49:36.100Z,11.43
2022-08-17T23:52:41.433Z,12.15
2022-08-17T23:55:44.042Z,11.55
2022-08-17T23:58:48.168Z,12.50
